Time;durP1;ratioP1;P1;durP2;ratioP2;P2;SDS_P1;SDS_P2;PMS_P1;PMS_P2;Temp;Humidity;BMP_temperature;BMP_pressure;BME280_temperature;BME280_humidity;BME280_pressure;Samples;Min_cycle;Max_cycle;Signal;HPM_P1;HPM_P2
2022/03/31 00:00:32;;;;;;;1.10;1.08;;;9.60;99.90;;;;;;4954073;28;20102;-74
2022/03/31 00:02:58;;;;;;;1.52;1.42;;;9.50;99.90;;;;;;4954206;28;20031;-75
2022/03/31 00:05:25;;;;;;;5.35;2.50;;;9.60;99.90;;;;;;4954646;28;20391;-75
2022/03/31 00:07:51;;;;;;;1.73;1.65;;;9.50;99.90;;;;;;4963567;28;20035;-75
2022/03/31 00:10:24;;;;;;;1.75;1.65;;;9.50;99.90;;;;;;4956333;28;20027;-74
2022/03/31 00:12:50;;;;;;;;;;;9.50;99.90;;;;;;4955093;28;20036;-74
2022/03/31 00:15:17;;;;;;;2.45;2.35;;;9.50;99.90;;;;;;4969230;28;19906;-74
2022/03/31 00:17:42;;;;;;;0.90;0.90;;;9.40;99.90;;;;;;4953595;28;20027;-75
2022/03/31 00:20:10;;;;;;;1.95;1.73;;;9.50;99.90;;;;;;4954306;28;20491;-74
2022/03/31 00:22:36;;;;;;;4.28;0.93;;;9.40;99.90;;;;;;4954629;28;20102;-75
2022/03/31 00:25:03;;;;;;;4.72;1.45;;;9.40;99.90;;;;;;4954551;28;20035;-74
2022/03/31 00:27:29;;;;;;;0.70;0.70;;;9.30;99.90;;;;;;4957638;28;20021;-75
2022/03/31 00:29:54;;;;;;;2.20;1.98;;;9.20;99.90;;;;;;4972796;28;20110;-74
2022/03/31 00:32:20;;;;;;;1.27;1.08;;;9.10;99.90;;;;;;4957455;28;20035;-75
2022/03/31 00:34:46;;;;;;;3.10;1.90;;;9.10;99.90;;;;;;4957666;28;20042;-74
2022/03/31 00:37:11;;;;;;;1.88;1.60;;;9.00;99.90;;;;;;4964049;28;20023;-74
2022/03/31 00:39:37;;;;;;;5.03;2.45;;;8.90;99.90;;;;;;4980821;28;20027;-74
2022/03/31 00:42:03;;;;;;;2.13;1.95;;;8.80;99.90;;;;;;4976723;28;20457;-75
2022/03/31 00:44:29;;;;;;;2.63;1.35;;;8.80;99.90;;;;;;4959608;28;20078;-73
2022/03/31 00:46:56;;;;;;;0.98;0.93;;;8.70;99.90;;;;;;4976937;28;20023;-74
2022/03/31 00:49:24;;;;;;;6.88;2.50;;;8.70;99.90;;;;;;4976386;28;20027;-73
2022/03/31 00:51:52;;;;;;;6.80;2.67;;;8.60;99.90;;;;;;4976158;28;20058;-74
2022/03/31 00:54:22;;;;;;;0.73;0.73;;;8.60;99.90;;;;;;4976050;28;20507;-74
2022/03/31 00:56:49;;;;;;;0.60;0.57;;;8.60;99.90;;;;;;4976773;28;20022;-74
2022/03/31 00:59:17;;;;;;;1.35;1.25;;;8.50;99.90;;;;;;4964455;28;20035;-73
2022/03/31 01:01:45;;;;;;;0.38;0.38;;;8.40;99.90;;;;;;4957300;28;20058;-74
2022/03/31 01:04:12;;;;;;;2.08;1.88;;;8.40;99.90;;;;;;4956836;28;20031;-73
2022/03/31 01:06:38;;;;;;;0.88;0.73;;;8.40;99.90;;;;;;4957528;28;20418;-75
2022/03/31 01:09:05;;;;;;;2.45;1.98;;;8.40;99.90;;;;;;4957061;28;20098;-75
2022/03/31 01:11:31;;;;;;;0.20;0.20;;;8.40;99.90;;;;;;4957056;28;20426;-75
2022/03/31 01:13:58;;;;;;;2.08;1.58;;;8.30;99.90;;;;;;4956140;28;20027;-74
2022/03/31 01:16:25;;;;;;;7.18;2.60;;;8.30;99.90;;;;;;4957138;28;20034;-74
2022/03/31 01:18:51;;;;;;;0.47;0.47;;;8.30;99.90;;;;;;4956358;28;20090;-74
2022/03/31 01:21:17;;;;;;;2.92;1.38;;;8.30;99.90;;;;;;4957619;28;20055;-75
2022/03/31 01:23:46;;;;;;;0.43;0.43;;;8.30;99.90;;;;;;4956642;28;20030;-74
2022/03/31 01:26:12;;;;;;;1.50;1.40;;;8.20;99.90;;;;;;4956836;28;20030;-73
2022/03/31 01:28:40;;;;;;;1.55;1.45;;;8.20;99.90;;;;;;4956207;28;20098;-74
2022/03/31 01:31:07;;;;;;;1.00;1.00;;;8.20;99.90;;;;;;4971519;28;20023;-73
2022/03/31 01:33:33;;;;;;;3.13;2.15;;;8.10;99.90;;;;;;4956394;28;20035;-74
2022/03/31 01:35:59;;;;;;;3.58;3.25;;;8.10;99.90;;;;;;4956550;28;20035;-74
2022/03/31 01:38:25;;;;;;;5.80;1.45;;;8.00;99.90;;;;;;4970834;28;20070;-74
2022/03/31 01:40:51;;;;;;;1.35;1.25;;;8.00;99.90;;;;;;4974066;28;20490;-75
2022/03/31 01:43:17;;;;;;;0.57;0.57;;;8.00;99.90;;;;;;4976339;28;20367;-74
2022/03/31 01:45:43;;;;;;;2.25;2.15;;;7.90;99.90;;;;;;4975773;28;20091;-74
2022/03/31 01:48:09;;;;;;;2.83;1.13;;;7.90;99.90;;;;;;4975547;28;20035;-74
2022/03/31 01:50:36;;;;;;;0.80;0.80;;;7.90;99.90;;;;;;4975606;28;20065;-74
2022/03/31 01:53:01;;;;;;;1.92;1.83;;;7.90;99.90;;;;;;4974017;28;20034;-74
2022/03/31 01:55:27;;;;;;;37.85;2.03;;;7.90;99.90;;;;;;4974422;28;20046;-74
2022/03/31 01:57:53;;;;;;;4.47;1.60;;;7.90;99.90;;;;;;4974169;28;20035;-74
2022/03/31 02:00:18;;;;;;;0.70;0.70;;;7.90;99.90;;;;;;4975489;28;20082;-74
2022/03/31 02:02:44;;;;;;;4.90;2.40;;;7.80;99.90;;;;;;4974623;28;20034;-74
2022/03/31 02:05:11;;;;;;;4.00;3.63;;;7.80;99.90;;;;;;4975522;28;20022;-74
2022/03/31 02:07:38;;;;;;;1.15;1.05;;;7.80;99.90;;;;;;4975616;28;20022;-73
2022/03/31 02:10:07;;;;;;;1.73;1.63;;;7.70;99.90;;;;;;4975070;28;20430;-74
2022/03/31 02:12:34;;;;;;;2.05;1.95;;;7.70;99.90;;;;;;4975103;28;20034;-75
2022/03/31 02:15:01;;;;;;;1.17;1.05;;;7.70;99.90;;;;;;4973961;28;20077;-73
2022/03/31 02:17:26;;;;;;;3.60;1.88;;;7.70;99.90;;;;;;4989654;28;20027;-75
2022/03/31 02:19:52;;;;;;;2.30;2.20;;;7.60;99.90;;;;;;4974838;28;20027;-73
2022/03/31 02:22:18;;;;;;;1.75;1.65;;;7.60;99.90;;;;;;4973644;28;20034;-73
2022/03/31 02:24:43;;;;;;;1.50;1.40;;;7.60;99.90;;;;;;4975318;28;20027;-74
2022/03/31 02:27:09;;;;;;;1.98;1.88;;;7.60;99.90;;;;;;4974909;28;20030;-74
2022/03/31 02:29:35;;;;;;;3.03;2.22;;;7.50;99.90;;;;;;4974987;28;20098;-74
2022/03/31 02:32:01;;;;;;;1.80;1.70;;;7.50;99.90;;;;;;4974808;28;20121;-74
2022/03/31 02:34:26;;;;;;;1.30;1.23;;;7.50;99.90;;;;;;4974937;28;20029;-74
2022/03/31 02:36:52;;;;;;;1.45;1.35;;;7.50;99.90;;;;;;4968791;28;20045;-74
2022/03/31 02:39:18;;;;;;;1.95;1.85;;;7.50;99.90;;;;;;4974813;28;20038;-75
2022/03/31 02:41:43;;;;;;;0.80;0.80;;;7.40;99.90;;;;;;4974629;28;20031;-74
2022/03/31 02:44:09;;;;;;;2.75;1.23;;;7.40;99.90;;;;;;4978009;28;20027;-74
2022/03/31 02:46:35;;;;;;;1.75;1.65;;;7.40;99.90;;;;;;4974783;28;20037;-74
2022/03/31 02:49:02;;;;;;;2.28;2.05;;;7.40;99.90;;;;;;4974363;28;20023;-73
2022/03/31 02:51:27;;;;;;;0.95;0.95;;;7.30;99.90;;;;;;4974293;28;20034;-74
2022/03/31 02:56:38;;;;;;;0.35;0.35;;;7.20;99.90;;;;;;4973874;28;20058;-74
2022/03/31 02:59:04;;;;;;;1.40;1.25;;;7.20;99.90;;;;;;4973084;28;20019;-73
2022/03/31 03:01:30;;;;;;;6.53;2.92;;;7.20;99.90;;;;;;4974575;28;20039;-74
2022/03/31 03:03:57;;;;;;;1.50;1.40;;;7.10;99.90;;;;;;4974009;28;20399;-75
2022/03/31 03:06:24;;;;;;;2.22;1.35;;;7.10;99.90;;;;;;4975814;28;20394;-73
2022/03/31 03:08:50;;;;;;;1.27;1.27;;;7.10;99.90;;;;;;4974307;28;20097;-73
2022/03/31 03:11:17;;;;;;;2.45;1.30;;;7.10;99.90;;;;;;4974315;28;20166;-73
2022/03/31 03:13:43;;;;;;;0.35;0.35;;;7.00;99.90;;;;;;4973549;28;20023;-74
2022/03/31 03:16:09;;;;;;;1.35;1.25;;;7.00;99.90;;;;;;4974480;28;20054;-75
2022/03/31 03:18:35;;;;;;;0.73;0.73;;;6.90;99.90;;;;;;4973738;28;20019;-75
2022/03/31 03:21:04;;;;;;;3.50;2.28;;;6.90;99.90;;;;;;4974589;28;20038;-74
2022/03/31 03:23:33;;;;;;;0.55;0.55;;;6.90;99.90;;;;;;4972944;28;20023;-73
2022/03/31 03:25:59;;;;;;;0.68;0.68;;;6.90;99.90;;;;;;4973917;28;20026;-73
2022/03/31 03:28:24;;;;;;;0.70;0.70;;;6.90;99.90;;;;;;4972313;28;20035;-73
2022/03/31 03:30:50;;;;;;;16.25;2.38;;;6.80;99.90;;;;;;4973741;28;20505;-75
2022/03/31 03:33:15;;;;;;;1.63;1.52;;;6.80;99.90;;;;;;4975087;28;20026;-74
2022/03/31 03:35:41;;;;;;;3.10;1.27;;;6.80;99.90;;;;;;4977710;28;20081;-74
2022/03/31 03:38:07;;;;;;;0.98;0.98;;;6.70;99.90;;;;;;4968404;28;20059;-73
2022/03/31 03:40:33;;;;;;;2.08;1.75;;;6.70;99.90;;;;;;4973953;28;20563;-73
2022/03/31 03:42:59;;;;;;;0.70;0.70;;;6.60;99.90;;;;;;4974398;28;20062;-74
2022/03/31 03:45:25;;;;;;;0.98;0.98;;;6.60;99.90;;;;;;4973960;28;20421;-75
2022/03/31 03:47:51;;;;;;;0.73;0.57;;;6.60;99.90;;;;;;4971638;28;20023;-73
2022/03/31 03:50:17;;;;;;;0.20;0.20;;;6.50;99.90;;;;;;4974019;28;20033;-73
2022/03/31 03:52:43;;;;;;;0.82;0.80;;;6.50;99.90;;;;;;4972412;28;20031;-73
2022/03/31 03:55:10;;;;;;;0.80;0.80;;;6.50;99.90;;;;;;4972888;28;20568;-75
2022/03/31 03:57:36;;;;;;;1.92;1.75;;;6.60;99.90;;;;;;4977173;28;20027;-73
2022/03/31 04:00:03;;;;;;;1.17;1.13;;;6.50;99.90;;;;;;4997337;28;20034;-77
2022/03/31 04:02:29;;;;;;;0.60;0.60;;;6.40;99.90;;;;;;4983083;28;20444;-74
2022/03/31 04:04:54;;;;;;;1.75;1.13;;;6.40;99.90;;;;;;4977611;28;20027;-73
2022/03/31 04:07:20;;;;;;;1.27;1.27;;;6.40;99.90;;;;;;4977605;28;20042;-73
2022/03/31 04:09:46;;;;;;;0.15;0.15;;;6.40;99.90;;;;;;4977219;28;20027;-75
2022/03/31 04:12:13;;;;;;;3.25;2.17;;;6.40;99.90;;;;;;4976785;28;20042;-74
2022/03/31 04:14:39;;;;;;;2.53;2.10;;;6.30;99.90;;;;;;4977383;28;20069;-73
2022/03/31 04:17:05;;;;;;;3.10;0.88;;;6.30;99.90;;;;;;4977474;28;20422;-74
2022/03/31 04:19:30;;;;;;;0.28;0.28;;;6.30;99.90;;;;;;4976811;28;20110;-73
2022/03/31 04:21:56;;;;;;;3.88;0.82;;;6.30;99.90;;;;;;4976801;28;20617;-74
2022/03/31 04:24:22;;;;;;;2.05;1.63;;;6.30;99.90;;;;;;4977445;28;20098;-75
2022/03/31 04:26:47;;;;;;;21.45;3.40;;;6.20;99.90;;;;;;4977274;28;20026;-75
2022/03/31 04:29:13;;;;;;;1.23;1.15;;;6.20;99.90;;;;;;4977256;28;20023;-75
2022/03/31 04:31:43;;;;;;;1.98;1.88;;;6.20;99.90;;;;;;4977170;28;20098;-75
2022/03/31 04:34:10;;;;;;;0.90;0.55;;;6.20;99.90;;;;;;4977142;28;20102;-74
2022/03/31 04:36:36;;;;;;;1.80;1.70;;;6.20;99.90;;;;;;4993781;28;20019;-74
2022/03/31 04:39:02;;;;;;;1.42;1.38;;;6.10;99.90;;;;;;5000873;28;20023;-72
2022/03/31 04:41:28;;;;;;;4.05;0.82;;;6.10;99.90;;;;;;4996539;28;20027;-77
2022/03/31 04:43:54;;;;;;;0.32;0.32;;;6.10;99.90;;;;;;4993715;28;20029;-74
2022/03/31 04:46:20;;;;;;;0.73;0.73;;;6.10;99.90;;;;;;4976997;28;20558;-74
2022/03/31 04:48:46;;;;;;;3.97;0.85;;;6.10;99.90;;;;;;4975423;28;20110;-73
2022/03/31 04:51:12;;;;;;;1.10;1.10;;;6.10;99.90;;;;;;4976524;28;20105;-73
2022/03/31 04:53:38;;;;;;;2.60;2.38;;;6.10;99.90;;;;;;4976141;28;20064;-74
2022/03/31 04:56:04;;;;;;;1.15;1.08;;;6.10;99.90;;;;;;4973963;28;20027;-74
2022/03/31 04:58:30;;;;;;;1.23;1.15;;;6.10;99.90;;;;;;4955274;28;20462;-74
2022/03/31 05:00:55;;;;;;;2.25;1.08;;;6.00;99.90;;;;;;4957003;28;20035;-75
2022/03/31 05:03:22;;;;;;;0.30;0.30;;;6.00;99.90;;;;;;4956878;28;20503;-74
2022/03/31 05:05:48;;;;;;;1.40;1.33;;;6.00;99.90;;;;;;4957994;28;20023;-75
2022/03/31 05:08:13;;;;;;;4.03;1.67;;;6.00;99.90;;;;;;4976305;28;20037;-74
2022/03/31 05:10:39;;;;;;;1.48;1.38;;;6.00;99.90;;;;;;4975678;28;20031;-73
2022/03/31 05:13:05;;;;;;;0.38;0.38;;;6.00;99.90;;;;;;4974632;28;20045;-74
2022/03/31 05:15:31;;;;;;;2.78;1.00;;;6.00;99.90;;;;;;4976236;28;20035;-75
2022/03/31 05:18:00;;;;;;;0.20;0.20;;;6.00;99.90;;;;;;4978643;28;20034;-74
2022/03/31 05:20:25;;;;;;;2.90;2.65;;;6.00;99.90;;;;;;4978255;28;20067;-73
2022/03/31 05:22:51;;;;;;;1.95;1.80;;;5.90;99.90;;;;;;4976517;28;20031;-74
2022/03/31 05:25:17;;;;;;;5.60;1.95;;;5.90;99.90;;;;;;4975923;28;20026;-75
2022/03/31 05:27:43;;;;;;;0.65;0.65;;;5.90;99.90;;;;;;4975827;28;20076;-75
2022/03/31 05:30:10;;;;;;;1.60;1.50;;;5.90;99.90;;;;;;4975913;28;20065;-73
2022/03/31 05:32:36;;;;;;;2.80;2.33;;;5.90;99.90;;;;;;4990054;28;20027;-75
2022/03/31 05:35:02;;;;;;;0.55;0.55;;;5.90;99.90;;;;;;4975854;28;20030;-74
2022/03/31 05:37:28;;;;;;;3.80;3.28;;;5.90;99.90;;;;;;4969849;28;20398;-75
2022/03/31 05:39:54;;;;;;;1.40;1.38;;;5.90;99.90;;;;;;4972564;28;20030;-74
2022/03/31 05:42:19;;;;;;;1.80;1.70;;;5.90;99.90;;;;;;4973372;28;20529;-75
2022/03/31 05:44:45;;;;;;;2.70;2.50;;;5.90;99.90;;;;;;4974887;28;20105;-74
2022/03/31 05:47:11;;;;;;;1.65;0.88;;;5.90;99.90;;;;;;4974658;28;20037;-75
2022/03/31 05:49:36;;;;;;;2.28;1.45;;;5.90;99.90;;;;;;4975014;28;20019;-75
2022/03/31 05:52:02;;;;;;;2.95;2.75;;;5.90;99.90;;;;;;4975126;28;20030;-75
2022/03/31 05:54:28;;;;;;;1.02;0.93;;;5.90;99.90;;;;;;4974662;28;20039;-76
2022/03/31 05:56:54;;;;;;;2.13;1.58;;;5.90;99.90;;;;;;4973265;28;20053;-76
2022/03/31 05:59:19;;;;;;;0.73;0.73;;;5.90;99.90;;;;;;4973997;28;20031;-76
2022/03/31 06:01:45;;;;;;;1.85;1.75;;;5.90;99.90;;;;;;4971393;28;20093;-76
2022/03/31 06:04:11;;;;;;;11.38;1.55;;;5.90;99.90;;;;;;4974335;28;20081;-75
2022/03/31 06:06:36;;;;;;;1.33;1.30;;;6.00;99.90;;;;;;4973018;28;20110;-76
2022/03/31 06:09:02;;;;;;;2.50;1.58;;;6.00;99.90;;;;;;4971240;28;20490;-82
2022/03/31 06:11:27;;;;;;;3.85;2.40;;;6.10;99.90;;;;;;4974140;28;20391;-76
2022/03/31 06:13:53;;;;;;;3.20;3.00;;;6.10;99.90;;;;;;4972579;28;20023;-77
2022/03/31 06:16:19;;;;;;;0.75;0.75;;;6.20;99.90;;;;;;4959730;28;20031;-75
2022/03/31 06:18:45;;;;;;;3.28;2.40;;;6.20;99.90;;;;;;4970984;28;20113;-76
2022/03/31 06:21:11;;;;;;;2.30;1.95;;;6.30;99.90;;;;;;4970321;28;20117;-76
2022/03/31 06:23:37;;;;;;;1.42;1.25;;;6.40;99.90;;;;;;4969434;28;20031;-75
2022/03/31 06:26:03;;;;;;;1.10;0.82;;;6.40;99.90;;;;;;4972927;28;20059;-75
2022/03/31 06:28:31;;;;;;;7.90;1.48;;;6.50;99.90;;;;;;4970204;28;20027;-75
2022/03/31 06:30:57;;;;;;;12.57;1.90;;;6.50;99.90;;;;;;4971738;28;20038;-75
2022/03/31 06:33:23;;;;;;;4.00;1.95;;;6.60;99.90;;;;;;4972927;28;20085;-76
2022/03/31 06:35:49;;;;;;;1.75;1.05;;;6.70;99.90;;;;;;4973029;28;20514;-75
2022/03/31 06:38:15;;;;;;;1.23;1.08;;;6.70;99.90;;;;;;4972124;28;20128;-75
2022/03/31 06:40:41;;;;;;;1.75;1.65;;;6.80;99.90;;;;;;4973004;28;20037;-76
2022/03/31 06:43:07;;;;;;;2.13;2.03;;;6.80;99.90;;;;;;4969240;28;20023;-76
2022/03/31 06:45:34;;;;;;;2.28;1.90;;;6.90;99.90;;;;;;4972226;28;20033;-77
2022/03/31 06:48:01;;;;;;;0.43;0.43;;;7.00;99.90;;;;;;4972834;28;20447;-75
2022/03/31 06:50:32;;;;;;;0.70;0.70;;;7.10;99.90;;;;;;4971743;28;20501;-75
2022/03/31 06:52:58;;;;;;;1.73;1.65;;;7.10;99.90;;;;;;4971292;28;20050;-75
2022/03/31 06:55:24;;;;;;;2.30;1.42;;;7.20;99.90;;;;;;4969486;28;20049;-75
2022/03/31 06:57:50;;;;;;;4.03;1.30;;;7.30;99.90;;;;;;4971041;28;20023;-76
2022/03/31 07:00:15;;;;;;;2.30;1.20;;;7.40;99.90;;;;;;4969003;28;20556;-76
2022/03/31 07:02:41;;;;;;;0.82;0.82;;;7.50;99.90;;;;;;4970216;28;20026;-75
2022/03/31 07:05:07;;;;;;;1.00;1.00;;;7.60;99.90;;;;;;4968876;28;20033;-76
2022/03/31 07:07:33;;;;;;;3.83;1.45;;;7.70;99.90;;;;;;4970175;28;20027;-76
2022/03/31 07:10:00;;;;;;;0.55;0.55;;;7.80;99.90;;;;;;4968859;28;20027;-75
2022/03/31 07:12:26;;;;;;;15.07;3.58;;;7.90;99.90;;;;;;4974896;28;20037;-76
2022/03/31 07:14:52;;;;;;;5.07;2.67;;;8.00;99.90;;;;;;4973277;28;20688;-74
2022/03/31 07:17:17;;;;;;;1.70;1.67;;;8.10;99.90;;;;;;4970840;28;20093;-75
2022/03/31 07:19:43;;;;;;;5.00;1.40;;;8.20;99.90;;;;;;4968192;28;20035;-76
2022/03/31 07:22:08;;;;;;;8.55;1.75;;;8.20;99.90;;;;;;4974772;28;20069;-75
2022/03/31 07:24:34;;;;;;;1.85;0.70;;;8.40;99.90;;;;;;4973378;28;20066;-76
2022/03/31 07:27:01;;;;;;;9.52;3.05;;;8.40;99.90;;;;;;4971357;28;20034;-76
2022/03/31 07:29:27;;;;;;;0.77;0.77;;;8.60;99.90;;;;;;4967093;28;20046;-76
2022/03/31 07:31:53;;;;;;;1.85;1.75;;;8.70;99.90;;;;;;4975839;28;20502;-74
2022/03/31 07:34:18;;;;;;;0.55;0.55;;;8.80;99.90;;;;;;4970691;28;20125;-75
2022/03/31 07:36:44;;;;;;;2.22;1.48;;;9.00;99.90;;;;;;4984846;28;20073;-76
2022/03/31 07:39:09;;;;;;;2.83;1.35;;;9.10;99.90;;;;;;4979171;28;20179;-76
2022/03/31 07:41:35;;;;;;;1.73;1.63;;;9.30;99.90;;;;;;4975898;28;20053;-76
2022/03/31 07:44:01;;;;;;;3.65;1.92;;;9.50;99.90;;;;;;4973341;28;20057;-75
2022/03/31 07:46:32;;;;;;;6.07;1.15;;;9.60;99.90;;;;;;4976887;28;20097;-75
2022/03/31 07:48:58;;;;;;;1.25;1.25;;;9.70;99.90;;;;;;4976197;28;20026;-75
2022/03/31 07:51:25;;;;;;;0.85;0.85;;;9.80;99.90;;;;;;4978387;28;20030;-76
2022/03/31 07:53:50;;;;;;;14.57;2.35;;;10.10;99.90;;;;;;4972639;28;20053;-76
2022/03/31 07:56:16;;;;;;;3.20;1.88;;;10.90;99.90;;;;;;4958876;28;20043;-76
2022/03/31 07:58:42;;;;;;;3.25;2.28;;;12.50;99.90;;;;;;4973558;28;20043;-76
2022/03/31 08:01:07;;;;;;;8.95;2.03;;;13.80;99.90;;;;;;4976032;28;20039;-75
2022/03/31 08:03:33;;;;;;;6.53;2.33;;;14.70;99.90;;;;;;4985565;28;20112;-76
2022/03/31 08:05:59;;;;;;;7.28;1.77;;;15.50;99.90;;;;;;4986134;28;20015;-77
2022/03/31 08:08:25;;;;;;;5.78;2.58;;;16.00;99.90;;;;;;4980285;28;20481;-75
2022/03/31 08:10:51;;;;;;;6.57;2.20;;;16.70;99.90;;;;;;4977529;28;20026;-76
2022/03/31 08:13:28;;;;;;;8.88;2.55;;;17.10;99.90;;;;;;4981173;28;20182;-76
2022/03/31 08:15:55;;;;;;;9.95;4.18;;;17.40;99.90;;;;;;4972006;28;20034;-76
2022/03/31 08:18:33;;;;;;;3.75;2.10;;;17.80;99.90;;;;;;4978636;28;20054;-77
2022/03/31 08:20:59;;;;;;;4.03;1.92;;;17.80;98.90;;;;;;4981472;28;20113;-76
2022/03/31 08:23:25;;;;;;;8.98;3.00;;;18.00;99.00;;;;;;4974805;28;20056;-76
2022/03/31 08:25:52;;;;;;;9.15;2.83;;;18.10;98.70;;;;;;4982230;28;20026;-77
2022/03/31 08:28:18;;;;;;;19.77;3.08;;;18.20;98.40;;;;;;4992454;28;20030;-76
2022/03/31 08:30:44;;;;;;;10.00;3.00;;;18.80;98.00;;;;;;4982864;28;20483;-76
2022/03/31 08:33:11;;;;;;;9.50;2.17;;;18.70;97.60;;;;;;4984168;28;20153;-76
2022/03/31 08:35:36;;;;;;;8.00;2.70;;;18.60;97.90;;;;;;4977873;28;20098;-76
2022/03/31 08:38:02;;;;;;;6.70;2.25;;;19.10;97.70;;;;;;4974714;28;20110;-77
2022/03/31 08:40:28;;;;;;;6.82;1.75;;;18.80;98.00;;;;;;4974516;28;20146;-76
2022/03/31 08:42:54;;;;;;;7.95;2.63;;;17.80;98.80;;;;;;4977116;28;20113;-76
2022/03/31 08:45:21;;;;;;;4.05;2.55;;;17.80;99.20;;;;;;4971684;28;20564;-76
2022/03/31 08:47:50;;;;;;;4.15;1.95;;;18.70;98.70;;;;;;4971334;28;20541;-76
2022/03/31 08:50:18;;;;;;;4.57;2.13;;;19.20;96.90;;;;;;4971121;28;20027;-76
2022/03/31 08:52:44;;;;;;;5.78;2.67;;;19.70;97.00;;;;;;4972338;28;20038;-76
2022/03/31 08:55:12;;;;;;;4.38;2.05;;;20.30;96.60;;;;;;4987572;28;20050;-76
2022/03/31 08:57:46;;;;;;;8.77;2.28;;;20.20;95.10;;;;;;4979477;28;20120;-76
2022/03/31 09:00:13;;;;;;;5.75;2.42;;;19.80;95.10;;;;;;4983050;28;20121;-76
2022/03/31 09:02:39;;;;;;;11.18;2.28;;;19.40;96.40;;;;;;4969159;28;20162;-77
2022/03/31 09:05:09;;;;;;;7.82;2.95;;;19.50;96.90;;;;;;4981902;28;20061;-76
2022/03/31 09:07:36;;;;;;;8.02;2.42;;;20.00;96.30;;;;;;4978934;28;20023;-76
2022/03/31 09:10:02;;;;;;;7.97;2.10;;;19.60;95.60;;;;;;4974607;28;20101;-76
2022/03/31 09:12:38;;;;;;;9.02;2.53;;;18.60;96.40;;;;;;4973232;28;20034;-76
2022/03/31 09:15:11;;;;;;;6.95;2.10;;;16.90;98.40;;;;;;4969564;28;20022;-76
2022/03/31 09:17:36;;;;;;;;;;;15.50;99.90;;;;;;4971925;28;20042;-75
2022/03/31 09:20:03;;;;;;;3.25;2.08;;;14.50;99.90;;;;;;4976065;28;19914;-76
2022/03/31 09:22:28;;;;;;;3.30;2.30;;;14.10;99.90;;;;;;4989839;28;20022;-77
2022/03/31 09:25:01;;;;;;;15.07;2.15;;;13.90;99.90;;;;;;4974053;28;20093;-77
2022/03/31 09:27:27;;;;;;;5.30;1.50;;;13.80;99.90;;;;;;4973575;28;20038;-75
2022/03/31 09:30:04;;;;;;;13.77;1.60;;;13.90;99.90;;;;;;4976110;28;20035;-75
2022/03/31 09:32:30;;;;;;;13.85;1.73;;;14.10;99.90;;;;;;4984001;28;20402;-75
2022/03/31 09:35:07;;;;;;;4.32;0.90;;;13.90;99.90;;;;;;4992691;28;20034;-76
2022/03/31 09:37:32;;;;;;;3.28;1.08;;;13.90;99.90;;;;;;4975401;28;20026;-76
2022/03/31 09:39:58;;;;;;;5.60;1.38;;;14.30;99.90;;;;;;4968969;28;20386;-76
2022/03/31 09:42:24;;;;;;;4.22;0.80;;;14.60;99.90;;;;;;4974603;28;20504;-75
2022/03/31 09:44:59;;;;;;;6.10;1.70;;;14.60;99.90;;;;;;4982581;28;20033;-75
2022/03/31 09:47:26;;;;;;;5.43;2.85;;;14.40;99.90;;;;;;4973493;28;20378;-75
2022/03/31 09:49:55;;;;;;;3.60;1.05;;;14.40;99.90;;;;;;4973421;28;20037;-75
2022/03/31 09:52:22;;;;;;;6.22;1.60;;;14.30;99.90;;;;;;4973047;28;20111;-75
2022/03/31 09:54:49;;;;;;;3.33;1.40;;;13.90;99.90;;;;;;4975819;28;20051;-75
2022/03/31 09:57:21;;;;;;;6.10;1.48;;;13.60;99.90;;;;;;4973554;28;20060;-75
2022/03/31 09:59:52;;;;;;;2.35;1.45;;;13.50;99.90;;;;;;4974942;28;20022;-75
2022/03/31 10:02:19;;;;;;;11.13;2.13;;;13.50;99.90;;;;;;4977102;28;20405;-75
2022/03/31 10:04:46;;;;;;;2.42;0.55;;;14.00;99.90;;;;;;4972580;28;20030;-75
2022/03/31 10:07:12;;;;;;;1.20;1.08;;;13.80;99.90;;;;;;4972130;28;20106;-75
2022/03/31 10:09:39;;;;;;;2.25;1.08;;;13.40;99.90;;;;;;4971845;28;20026;-75
2022/03/31 10:12:11;;;;;;;4.75;1.98;;;13.40;99.90;;;;;;4969605;28;20489;-75
2022/03/31 10:14:55;;;;;;;3.33;1.90;;;14.60;99.90;;;;;;4971745;28;20046;-76
2022/03/31 10:17:28;;;;;;;4.88;2.35;;;15.90;99.90;;;;;;4971513;28;20117;-76
2022/03/31 10:20:05;;;;;;;3.92;1.50;;;16.70;99.30;;;;;;4969687;28;20031;-76
2022/03/31 10:25:15;;;;;;;4.63;1.60;;;17.20;98.40;;;;;;4972563;28;20410;-76
2022/03/31 10:27:47;;;;;;;4.70;1.55;;;16.30;99.30;;;;;;4976465;28;20055;-75
2022/03/31 10:30:18;;;;;;;2.93;1.03;;;16.10;99.70;;;;;;4979214;28;20034;-76
2022/03/31 10:32:56;;;;;;;2.90;1.42;;;16.20;99.20;;;;;;4972148;28;20035;-76
2022/03/31 10:35:24;;;;;;;2.00;0.95;;;15.40;99.90;;;;;;4966257;28;20034;-77
2022/03/31 10:37:50;;;;;;;7.05;1.90;;;14.60;99.90;;;;;;4975776;28;20347;-76
2022/03/31 10:40:29;;;;;;;3.88;1.88;;;14.50;99.90;;;;;;4971496;28;20030;-76
2022/03/31 10:42:55;;;;;;;6.78;3.00;;;15.10;99.90;;;;;;4972336;28;20042;-76
2022/03/31 10:45:21;;;;;;;4.10;1.50;;;15.40;99.90;;;;;;4970537;28;20027;-76
2022/03/31 10:47:46;;;;;;;2.55;1.38;;;14.90;99.90;;;;;;4973134;28;20073;-76
2022/03/31 10:50:32;;;;;;;3.13;1.88;;;14.80;99.90;;;;;;4971343;28;20027;-76
2022/03/31 10:53:02;;;;;;;1.90;1.17;;;14.70;99.90;;;;;;4969804;28;20142;-76
2022/03/31 10:55:40;;;;;;;0.75;0.75;;;14.80;99.90;;;;;;4973023;28;20050;-75
2022/03/31 10:58:18;;;;;;;7.03;1.92;;;15.10;99.90;;;;;;4968803;28;20122;-76
2022/03/31 11:00:43;;;;;;;4.75;3.55;;;15.10;99.90;;;;;;4968624;28;20069;-75
2022/03/31 11:03:10;;;;;;;2.60;1.45;;;15.10;99.90;;;;;;4965505;28;20118;-75
2022/03/31 11:05:38;;;;;;;6.45;3.08;;;15.30;99.90;;;;;;4968550;28;20019;-76
2022/03/31 11:08:07;;;;;;;8.50;4.40;;;15.30;99.90;;;;;;4970363;28;20037;-75
2022/03/31 11:11:02;;;;;;;11.25;1.60;;;15.00;99.90;;;;;;4968812;28;20098;-76
2022/03/31 11:13:32;;;;;;;5.07;1.98;;;15.00;99.90;;;;;;4968167;28;20042;-75
2022/03/31 11:15:58;;;;;;;1.95;1.83;;;15.00;99.90;;;;;;4968766;28;20561;-75
2022/03/31 11:18:24;;;;;;;5.22;1.75;;;14.50;99.90;;;;;;4973242;28;20046;-76
2022/03/31 11:21:01;;;;;;;1.17;1.15;;;14.60;99.90;;;;;;4970808;28;20081;-75
2022/03/31 11:23:29;;;;;;;0.82;0.80;;;14.80;99.90;;;;;;4967368;28;20035;-75
2022/03/31 11:25:56;;;;;;;7.80;1.95;;;14.70;99.90;;;;;;4962750;28;20458;-75
2022/03/31 11:28:21;;;;;;;1.13;0.82;;;14.50;99.90;;;;;;4965662;28;20046;-75
2022/03/31 11:30:48;;;;;;;6.05;1.92;;;14.20;99.90;;;;;;4968474;28;20387;-77
2022/03/31 11:33:15;;;;;;;3.63;1.40;;;14.20;99.90;;;;;;4969827;28;20038;-75
2022/03/31 11:35:42;;;;;;;1.40;0.75;;;14.40;99.90;;;;;;4969972;28;20121;-75
2022/03/31 11:38:16;;;;;;;9.82;1.98;;;14.70;99.90;;;;;;4969043;28;20090;-75
2022/03/31 11:40:47;;;;;;;6.13;2.17;;;15.10;99.90;;;;;;4969793;28;20046;-75
2022/03/31 11:43:15;;;;;;;1.27;1.17;;;15.50;99.90;;;;;;4970065;28;20458;-75
2022/03/31 11:45:45;;;;;;;5.05;0.85;;;15.50;99.90;;;;;;4954175;28;21224;-75
2022/03/31 11:48:14;;;;;;;9.05;1.45;;;15.20;99.90;;;;;;4968720;28;20089;-75
2022/03/31 11:50:50;;;;;;;1.20;1.17;;;14.10;99.90;;;;;;4964339;28;20027;-74
2022/03/31 11:53:29;;;;;;;3.05;1.75;;;13.60;99.90;;;;;;4970627;28;20027;-75
2022/03/31 11:56:11;;;;;;;2.05;1.33;;;13.50;99.90;;;;;;4970512;28;20038;-75
2022/03/31 11:58:48;;;;;;;0.57;0.55;;;13.50;99.90;;;;;;4968423;28;20050;-76
2022/03/31 12:01:15;;;;;;;1.60;1.50;;;13.30;99.90;;;;;;4967272;28;20031;-75
2022/03/31 12:03:41;;;;;;;2.72;0.93;;;13.70;99.90;;;;;;4968776;28;20037;-74
2022/03/31 12:06:07;;;;;;;7.63;2.85;;;13.70;99.90;;;;;;4964340;28;20422;-75
2022/03/31 12:08:34;;;;;;;1.77;1.02;;;13.50;99.90;;;;;;4967727;28;20034;-75
2022/03/31 12:11:00;;;;;;;1.17;1.15;;;13.90;99.90;;;;;;4968859;28;20446;-83
2022/03/31 12:13:27;;;;;;;2.45;1.08;;;13.90;99.90;;;;;;4970428;28;20027;-79
2022/03/31 12:16:08;;;;;;;3.47;1.48;;;13.50;99.90;;;;;;4963661;28;20035;-74
2022/03/31 12:18:35;;;;;;;1.88;1.33;;;13.30;99.90;;;;;;4969667;28;20033;-78
2022/03/31 12:21:04;;;;;;;1.02;0.95;;;13.20;99.90;;;;;;4961477;28;20420;-75
2022/03/31 12:23:30;;;;;;;1.67;1.40;;;13.80;99.90;;;;;;4967144;28;20023;-76
2022/03/31 12:25:56;;;;;;;2.80;1.13;;;14.30;99.90;;;;;;4968286;28;20027;-75
2022/03/31 12:28:23;;;;;;;4.90;1.60;;;14.10;99.90;;;;;;4973465;28;20035;-74
2022/03/31 12:30:57;;;;;;;1.15;0.93;;;13.80;99.90;;;;;;4973551;28;20483;-76
2022/03/31 12:33:25;;;;;;;8.20;2.70;;;13.20;99.90;;;;;;4972606;28;20034;-74
2022/03/31 12:36:00;;;;;;;0.80;0.73;;;13.00;99.90;;;;;;4973555;28;20023;-75
2022/03/31 12:38:37;;;;;;;1.92;1.00;;;13.30;99.90;;;;;;4973958;28;20023;-76
2022/03/31 12:41:07;;;;;;;4.03;0.98;;;13.40;99.90;;;;;;4971696;28;20027;-76
2022/03/31 12:43:32;;;;;;;1.75;0.82;;;13.20;99.90;;;;;;4973248;28;20140;-75
2022/03/31 12:46:15;;;;;;;0.93;0.85;;;12.80;99.90;;;;;;4971212;28;20102;-74
2022/03/31 12:48:56;;;;;;;4.72;1.63;;;12.90;99.90;;;;;;4972229;28;20469;-75
2022/03/31 12:51:24;;;;;;;0.55;0.55;;;13.30;99.90;;;;;;4971935;28;20049;-75
2022/03/31 12:53:50;;;;;;;1.55;1.13;;;13.40;99.90;;;;;;4972874;28;20087;-75
2022/03/31 12:56:24;;;;;;;3.85;1.83;;;13.70;99.90;;;;;;4973180;28;20149;-74
2022/03/31 12:58:51;;;;;;;0.90;0.90;;;13.50;99.90;;;;;;4968273;28;20599;-76